Seal Beach, California
Current Conditions -  °F | °C
As of 7:58 AM on Saturday 25 Oct 2014 (Local Time) from KSLI Reporting Station
Haze Haze  
Wind Chill: 65°   Ceiling: 10000
Heat Index: 65°   Visibility: 5mi
Dew Point: 63°   Wind: 1mph
Humidity: 93%   Direction: 300°WNW
Pressure: 30.02"   Gusts: NA
Location:  33.74°N, 118.1°W
Report Text: KSLI 251458Z 30001KT 5SM BR BKN100 19/17 A3002 RMK AO2A SLP169 T01850174 52016
Loading
Personal Weather Stations






























Interactive Weather Map New forecast layout! Learn more

10-Day Weather Forecast

Advertisements
Track Severe Weather on mobile